createdAt,value
2018-02-01T00:00:22.567Z,3.60
2018-02-01T00:03:02.396Z,3.53
2018-02-01T00:05:42.978Z,2.73
2018-02-01T00:08:22.723Z,3.20
2018-02-01T00:11:02.249Z,4.50
2018-02-01T00:13:41.651Z,4.70
2018-02-01T00:16:20.210Z,3.87
2018-02-01T00:18:59.668Z,4.27
2018-02-01T00:21:38.245Z,3.60
2018-02-01T00:24:17.659Z,4.83
2018-02-01T00:26:57.087Z,3.73
2018-02-01T00:29:39.707Z,5.30
2018-02-01T00:32:19.157Z,5.00
2018-02-01T00:34:58.482Z,5.53
2018-02-01T00:37:37.871Z,4.70
2018-02-01T00:40:16.306Z,4.50
2018-02-01T00:42:55.910Z,5.47
2018-02-01T00:45:35.401Z,5.20
2018-02-01T00:48:17.529Z,5.03
2018-02-01T00:50:56.495Z,4.80
2018-02-01T00:53:36.028Z,7.87
2018-02-01T00:56:17.770Z,7.07
2018-02-01T00:58:57.596Z,5.50
2018-02-01T01:01:36.142Z,4.80
2018-02-01T01:04:15.171Z,4.03
2018-02-01T01:06:54.141Z,4.40
2018-02-01T01:09:33.588Z,6.50
2018-02-01T01:12:12.713Z,4.87
2018-02-01T01:14:52.475Z,4.23
2018-02-01T01:17:32.755Z,3.95
2018-02-01T01:20:11.333Z,4.60
2018-02-01T01:22:49.782Z,3.85
2018-02-01T01:25:28.447Z,4.55
2018-02-01T01:28:07.962Z,3.37
2018-02-01T01:30:47.564Z,4.13
2018-02-01T01:33:27.938Z,4.10
2018-02-01T01:36:07.505Z,4.40
2018-02-01T01:38:46.970Z,4.30
2018-02-01T01:41:25.515Z,4.40
2018-02-01T01:44:07.000Z,4.70
2018-02-01T01:46:46.484Z,4.00
2018-02-01T01:49:25.917Z,4.23
2018-02-01T01:52:05.309Z,4.10
2018-02-01T01:54:46.380Z,3.80
2018-02-01T01:57:27.008Z,4.50
2018-02-01T02:02:53.966Z,4.60
2018-02-01T02:05:33.877Z,5.53
2018-02-01T02:08:11.597Z,5.50
2018-02-01T02:10:49.971Z,4.60
2018-02-01T02:13:28.614Z,4.60
2018-02-01T02:16:08.344Z,4.05
2018-02-01T02:18:47.952Z,5.10
2018-02-01T02:21:28.411Z,8.80
2018-02-01T02:24:07.963Z,7.05
2018-02-01T02:26:47.481Z,6.22
2018-02-01T02:29:28.082Z,6.50
2018-02-01T02:32:07.706Z,6.18
2018-02-01T02:34:46.081Z,6.22
2018-02-01T02:37:25.457Z,5.62
2018-02-01T02:40:06.029Z,5.47
2018-02-01T02:42:46.457Z,5.15
2018-02-01T02:45:24.791Z,7.65
2018-02-01T02:48:04.223Z,9.63
2018-02-01T02:50:43.704Z,23.08
2018-02-01T02:53:24.082Z,9.13
2018-02-01T02:58:37.357Z,6.65
2018-02-01T03:01:19.557Z,7.15
2018-02-01T03:04:02.201Z,5.93
2018-02-01T03:06:42.360Z,7.72
2018-02-01T03:09:21.375Z,8.00
2018-02-01T03:11:59.714Z,9.98
2018-02-01T03:14:41.190Z,6.43
2018-02-01T03:17:21.625Z,7.10
2018-02-01T03:20:00.171Z,8.13
2018-02-01T03:22:40.684Z,8.85
2018-02-01T03:25:20.143Z,8.10
2018-02-01T03:27:58.589Z,8.50
2018-02-01T03:30:36.000Z,7.22
2018-02-01T03:33:15.605Z,7.93
2018-02-01T03:35:55.143Z,7.00
2018-02-01T03:38:33.591Z,7.07
2018-02-01T03:41:13.838Z,6.95
2018-02-01T03:43:51.218Z,7.40
2018-02-01T03:46:31.680Z,7.85
2018-02-01T03:49:11.123Z,7.32
2018-02-01T03:51:50.201Z,7.20
2018-02-01T03:54:30.235Z,8.10
2018-02-01T03:57:11.730Z,8.20
2018-02-01T03:59:51.280Z,8.20
2018-02-01T04:02:31.318Z,7.93
2018-02-01T04:05:09.627Z,11.65
2018-02-01T04:07:48.224Z,11.88
2018-02-01T04:10:26.779Z,14.10
2018-02-01T04:13:06.656Z,14.85
2018-02-01T04:15:46.418Z,15.05
2018-02-01T04:18:26.162Z,13.68
2018-02-01T04:21:04.538Z,18.25
2018-02-01T04:23:43.399Z,15.95
2018-02-01T04:26:21.903Z,12.98
2018-02-01T04:29:01.477Z,12.00
2018-02-01T04:31:40.135Z,11.98
2018-02-01T04:34:18.684Z,13.85
2018-02-01T04:36:58.510Z,13.52
2018-02-01T04:39:37.998Z,14.75
2018-02-01T04:42:16.565Z,16.48
2018-02-01T04:44:56.193Z,15.15
2018-02-01T04:47:34.726Z,14.65
2018-02-01T04:50:15.853Z,14.35
2018-02-01T04:52:54.886Z,15.23
2018-02-01T04:55:34.492Z,19.52
2018-02-01T04:58:13.790Z,20.75
2018-02-01T05:00:53.385Z,19.83
2018-02-01T05:03:31.048Z,22.27
2018-02-01T05:06:10.680Z,21.65
2018-02-01T05:08:49.122Z,13.30
2018-02-01T05:11:29.619Z,13.32
2018-02-01T05:14:10.173Z,12.73
2018-02-01T05:16:48.729Z,12.40
2018-02-01T05:19:30.306Z,18.40
2018-02-01T05:22:08.735Z,17.10
2018-02-01T05:24:47.202Z,16.25
2018-02-01T05:27:25.668Z,15.70
2018-02-01T05:30:05.553Z,15.85
2018-02-01T05:32:43.625Z,15.93
2018-02-01T05:35:21.065Z,13.62
2018-02-01T05:38:01.753Z,13.98
2018-02-01T05:40:40.261Z,12.60
2018-02-01T05:43:18.705Z,13.23
2018-02-01T05:45:57.143Z,13.85
2018-02-01T05:48:36.697Z,12.73
2018-02-01T05:51:17.410Z,14.00
2018-02-01T05:54:01.058Z,17.52
2018-02-01T05:56:39.669Z,18.95
2018-02-01T05:59:21.304Z,16.45
2018-02-01T06:02:06.726Z,16.35
2018-02-01T06:04:45.093Z,15.60
2018-02-01T06:07:25.669Z,15.55
2018-02-01T06:10:06.105Z,14.05
2018-02-01T06:12:46.510Z,15.68
2018-02-01T06:15:27.074Z,16.10
2018-02-01T06:18:06.510Z,15.95
2018-02-01T06:20:45.051Z,18.83
2018-02-01T06:23:24.521Z,19.20
2018-02-01T06:26:03.025Z,21.58
2018-02-01T06:28:44.626Z,19.05
2018-02-01T06:31:23.094Z,19.27
2018-02-01T06:34:02.697Z,19.48
2018-02-01T06:36:41.280Z,21.45
2018-02-01T06:39:21.819Z,25.70
2018-02-01T06:42:02.579Z,22.20
2018-02-01T06:44:42.159Z,18.00
2018-02-01T06:47:22.713Z,18.98
2018-02-01T06:50:03.470Z,18.58
2018-02-01T06:52:42.930Z,17.87
2018-02-01T06:55:22.628Z,15.05
2018-02-01T06:58:01.241Z,14.52
2018-02-01T07:00:56.688Z,16.10
2018-02-01T07:03:35.306Z,15.52
2018-02-01T07:06:15.986Z,13.85
2018-02-01T07:08:54.502Z,15.50
2018-02-01T07:11:35.232Z,16.00
2018-02-01T07:14:14.886Z,14.77
2018-02-01T07:16:54.517Z,13.00
2018-02-01T07:19:34.202Z,12.93
2018-02-01T07:22:14.011Z,14.43
2018-02-01T07:24:52.375Z,12.88
2018-02-01T07:27:32.018Z,14.15
2018-02-01T07:30:11.701Z,15.02
2018-02-01T07:32:52.381Z,18.23
2018-02-01T07:35:33.139Z,13.82
2018-02-01T07:38:12.846Z,12.80
2018-02-01T07:40:53.468Z,13.00
2018-02-01T07:43:31.997Z,13.02
2018-02-01T07:46:11.654Z,11.98
2018-02-01T07:48:51.243Z,12.18
2018-02-01T07:51:31.706Z,11.05
2018-02-01T07:54:11.361Z,12.37
2018-02-01T07:56:49.882Z,10.35
2018-02-01T07:59:28.532Z,10.48
2018-02-01T08:02:07.992Z,11.50
2018-02-01T08:04:48.587Z,10.32
2018-02-01T08:07:29.370Z,9.90
2018-02-01T08:10:08.118Z,9.30
2018-02-01T08:12:46.444Z,9.75
2018-02-01T08:15:25.418Z,10.70
2018-02-01T08:18:04.334Z,10.75
2018-02-01T08:20:43.853Z,9.95
2018-02-01T08:23:23.612Z,9.02
2018-02-01T08:26:03.488Z,9.45
2018-02-01T08:28:43.078Z,8.95
2018-02-01T08:31:21.798Z,9.57
2018-02-01T08:34:02.422Z,9.40
2018-02-01T08:36:41.011Z,10.27
2018-02-01T08:39:19.672Z,9.20
2018-02-01T08:41:59.486Z,8.23
2018-02-01T08:44:38.994Z,8.13
2018-02-01T08:47:17.583Z,7.80
2018-02-01T08:49:57.156Z,6.75
2018-02-01T08:52:36.787Z,6.97
2018-02-01T08:55:16.469Z,7.00
2018-02-01T08:57:56.170Z,6.97
2018-02-01T09:00:34.581Z,6.30
2018-02-01T09:03:14.192Z,6.85
2018-02-01T09:05:52.745Z,7.45
2018-02-01T09:08:32.133Z,6.65
2018-02-01T09:11:12.702Z,7.75
2018-02-01T09:13:52.231Z,5.30
2018-02-01T09:16:31.054Z,6.62
2018-02-01T09:19:09.581Z,5.82
2018-02-01T09:21:49.235Z,6.00
2018-02-01T09:24:28.735Z,6.05
2018-02-01T09:27:08.667Z,6.15
2018-02-01T09:29:47.469Z,6.05
2018-02-01T09:32:28.082Z,6.57
2018-02-01T09:35:07.788Z,6.53
2018-02-01T09:37:48.463Z,7.05
2018-02-01T09:40:29.143Z,6.70
2018-02-01T09:43:08.728Z,6.55
2018-02-01T09:45:48.319Z,7.05
2018-02-01T09:48:26.804Z,7.70
2018-02-01T09:51:05.538Z,7.18
2018-02-01T09:53:45.125Z,8.30
2018-02-01T09:56:23.575Z,8.00
2018-02-01T09:59:02.136Z,7.43
2018-02-01T10:01:41.698Z,6.12
2018-02-01T10:04:22.209Z,7.25
2018-02-01T10:07:01.721Z,6.72
2018-02-01T10:09:39.336Z,8.27
2018-02-01T10:12:17.955Z,8.23
2018-02-01T10:14:56.653Z,7.70
2018-02-01T10:17:35.284Z,8.75
2018-02-01T10:20:13.062Z,11.70
2018-02-01T10:22:52.797Z,13.25
2018-02-01T10:25:29.376Z,9.93
2018-02-01T10:28:09.281Z,8.10
2018-02-01T10:30:48.662Z,6.43
2018-02-01T10:33:27.051Z,6.07
2018-02-01T10:36:06.449Z,6.35
2018-02-01T10:38:46.006Z,5.65
2018-02-01T10:41:27.493Z,5.72
2018-02-01T10:44:08.259Z,6.25
2018-02-01T10:46:48.863Z,6.45
2018-02-01T10:49:27.677Z,6.10
2018-02-01T10:52:06.268Z,7.07
2018-02-01T10:54:45.930Z,7.10
2018-02-01T10:57:26.783Z,7.15
2018-02-01T11:00:06.504Z,6.90
2018-02-01T11:02:45.089Z,6.90
2018-02-01T11:05:23.618Z,5.60
2018-02-01T11:08:02.112Z,5.70
2018-02-01T11:10:41.590Z,6.15
2018-02-01T11:13:21.845Z,5.37
2018-02-01T11:16:00.903Z,7.15
2018-02-01T11:18:40.380Z,6.87
2018-02-01T11:21:19.910Z,6.00
2018-02-01T11:23:59.372Z,5.95
2018-02-01T11:26:39.084Z,6.20
2018-02-01T11:29:19.632Z,6.15
2018-02-01T11:31:59.220Z,7.95
2018-02-01T11:34:40.737Z,6.50
2018-02-01T11:37:20.346Z,7.07
2018-02-01T11:39:59.870Z,6.30
2018-02-01T11:42:40.346Z,6.32
2018-02-01T11:45:18.846Z,6.15
2018-02-01T11:47:58.506Z,6.80
2018-02-01T11:50:36.865Z,6.70
2018-02-01T11:53:15.345Z,7.03
2018-02-01T11:55:54.906Z,6.85
2018-02-01T11:58:34.269Z,6.12
2018-02-01T12:01:13.746Z,5.75
2018-02-01T12:03:53.316Z,5.45
2018-02-01T12:06:32.802Z,5.57
2018-02-01T12:09:11.271Z,5.10
2018-02-01T12:11:50.830Z,5.68
2018-02-01T12:14:29.078Z,5.70
2018-02-01T12:17:07.836Z,4.65
2018-02-01T12:19:47.315Z,4.93
2018-02-01T12:22:27.789Z,4.85
2018-02-01T12:25:07.467Z,4.93
2018-02-01T12:27:52.098Z,4.93
2018-02-01T12:30:30.876Z,5.07
2018-02-01T12:33:10.298Z,4.97
2018-02-01T12:35:49.760Z,4.22
2018-02-01T12:38:29.104Z,5.00
2018-02-01T12:41:24.617Z,4.50
2018-02-01T12:44:05.456Z,4.03
2018-02-01T12:46:46.105Z,4.30
2018-02-01T12:49:24.504Z,3.72
2018-02-01T12:52:04.083Z,4.62
2018-02-01T12:54:44.262Z,4.70
2018-02-01T12:57:23.067Z,4.07
2018-02-01T13:00:01.590Z,4.70
2018-02-01T13:02:41.268Z,4.25
2018-02-01T13:05:20.950Z,5.30
2018-02-01T13:08:00.619Z,3.95
2018-02-01T13:10:42.095Z,3.92
2018-02-01T13:13:20.489Z,4.65
2018-02-01T13:15:58.918Z,3.72
2018-02-01T13:18:38.397Z,5.22
2018-02-01T13:21:17.034Z,8.02
2018-02-01T13:23:56.398Z,7.80
2018-02-01T13:26:38.110Z,10.45
2018-02-01T13:29:16.631Z,6.32
2018-02-01T13:32:00.271Z,7.00
2018-02-01T13:34:39.856Z,6.60
2018-02-01T13:37:21.760Z,7.82
2018-02-01T13:39:58.948Z,9.73
2018-02-01T13:42:40.546Z,8.00
2018-02-01T13:45:21.161Z,8.15
2018-02-01T13:47:59.575Z,8.55
2018-02-01T13:50:38.961Z,8.73
2018-02-01T13:53:19.306Z,7.20
2018-02-01T13:55:58.878Z,12.40
2018-02-01T13:58:38.478Z,7.43
2018-02-01T14:01:18.921Z,6.75
2018-02-01T14:03:58.459Z,4.40
2018-02-01T14:06:36.943Z,4.00
2018-02-01T14:09:16.514Z,4.05
2018-02-01T14:11:55.939Z,3.20
2018-02-01T14:14:36.590Z,3.22
2018-02-01T14:17:15.180Z,2.90
2018-02-01T14:19:53.739Z,3.45
2018-02-01T14:22:34.407Z,3.37
2018-02-01T14:25:14.152Z,3.00
2018-02-01T14:27:53.704Z,3.15
2018-02-01T14:30:34.158Z,3.30
2018-02-01T14:33:12.696Z,3.00
2018-02-01T14:35:50.306Z,3.15
2018-02-01T14:38:29.770Z,3.70
2018-02-01T14:41:08.211Z,3.22
2018-02-01T14:43:46.843Z,3.08
2018-02-01T14:46:27.412Z,3.75
2018-02-01T14:49:08.932Z,3.75
2018-02-01T14:51:48.545Z,3.75
2018-02-01T14:54:28.117Z,3.17
2018-02-01T14:57:09.523Z,3.20
2018-02-01T14:59:48.911Z,3.50
2018-02-01T15:02:29.496Z,3.47
2018-02-01T15:05:08.942Z,3.58
2018-02-01T15:07:47.490Z,3.25
2018-02-01T15:10:26.839Z,3.03
2018-02-01T15:13:07.701Z,3.17
2018-02-01T15:15:47.141Z,3.20
2018-02-01T15:18:25.706Z,3.50
2018-02-01T15:21:05.958Z,3.10
2018-02-01T15:23:44.928Z,3.22
2018-02-01T15:26:24.473Z,3.40
2018-02-01T15:29:03.054Z,2.92
2018-02-01T15:31:41.583Z,3.28
2018-02-01T15:34:21.174Z,3.30
2018-02-01T15:37:00.894Z,3.00
2018-02-01T15:39:40.466Z,3.00
2018-02-01T15:42:20.114Z,3.80
2018-02-01T15:44:59.693Z,3.70
2018-02-01T15:47:39.207Z,4.75
2018-02-01T15:50:17.713Z,2.87
2018-02-01T15:52:55.116Z,3.35
2018-02-01T15:55:33.561Z,3.60
2018-02-01T15:58:13.276Z,3.20
2018-02-01T16:00:52.607Z,3.90
2018-02-01T16:03:32.196Z,3.78
2018-02-01T16:06:10.686Z,4.00
2018-02-01T16:08:49.084Z,5.18
2018-02-01T16:11:27.474Z,4.32
2018-02-01T16:14:07.077Z,5.15
2018-02-01T16:16:46.556Z,5.50
2018-02-01T16:19:26.267Z,4.65
2018-02-01T16:22:06.654Z,5.60
2018-02-01T16:24:46.244Z,5.30
2018-02-01T16:27:25.766Z,5.45
2018-02-01T16:30:05.246Z,5.68
2018-02-01T16:32:44.569Z,6.30
2018-02-01T16:35:23.846Z,6.35
2018-02-01T16:38:03.225Z,5.68
2018-02-01T16:40:42.692Z,5.60
2018-02-01T16:43:23.552Z,5.90
2018-02-01T16:46:02.763Z,4.57
2018-02-01T16:48:42.260Z,4.20
2018-02-01T16:51:20.561Z,3.85
2018-02-01T16:53:59.019Z,3.90
2018-02-01T16:56:38.594Z,5.28
2018-02-01T16:59:18.271Z,4.03
2018-02-01T17:01:56.753Z,4.45
2018-02-01T17:04:37.291Z,4.72
2018-02-01T17:07:15.893Z,4.12
2018-02-01T17:09:55.289Z,3.72
2018-02-01T17:12:33.683Z,3.90
2018-02-01T17:15:14.330Z,4.55
2018-02-01T17:17:53.818Z,4.55
2018-02-01T17:20:32.117Z,5.55
2018-02-01T17:23:11.516Z,5.07
2018-02-01T17:25:51.134Z,5.15
2018-02-01T17:28:29.718Z,5.35
2018-02-01T17:31:08.190Z,5.45
2018-02-01T17:33:48.702Z,5.03
2018-02-01T17:36:27.145Z,5.90
2018-02-01T17:39:06.466Z,6.37
2018-02-01T17:41:45.959Z,6.18
2018-02-01T17:44:25.223Z,6.95
2018-02-01T17:47:03.609Z,7.00
2018-02-01T17:49:44.186Z,6.35
2018-02-01T17:52:23.538Z,5.70
2018-02-01T17:55:03.975Z,5.00
2018-02-01T17:57:43.465Z,5.25
2018-02-01T18:00:23.262Z,5.65
2018-02-01T18:03:02.743Z,5.78
2018-02-01T18:05:42.244Z,6.53
2018-02-01T18:08:21.729Z,6.18
2018-02-01T18:11:01.089Z,6.25
2018-02-01T18:13:41.741Z,7.25
2018-02-01T18:16:21.219Z,4.95
2018-02-01T18:18:59.717Z,5.78
2018-02-01T18:21:39.322Z,5.12
2018-02-01T18:24:19.671Z,5.15
2018-02-01T18:26:58.156Z,5.40
2018-02-01T18:29:37.641Z,5.10
2018-02-01T18:32:17.445Z,5.60
2018-02-01T18:34:55.843Z,5.50
2018-02-01T18:37:35.327Z,5.68
2018-02-01T18:40:14.796Z,4.78
2018-02-01T18:42:54.217Z,5.20
2018-02-01T18:45:34.917Z,4.57
2018-02-01T18:48:13.447Z,3.55
2018-02-01T18:50:52.671Z,3.15
2018-02-01T18:53:32.124Z,2.45
2018-02-01T18:56:11.554Z,2.30
2018-02-01T18:58:50.150Z,2.22
2018-02-01T19:01:29.733Z,1.80
2018-02-01T19:04:09.224Z,2.50
2018-02-01T19:06:48.685Z,1.97
2018-02-01T19:09:28.082Z,2.47
2018-02-01T19:12:06.433Z,2.93
2018-02-01T19:14:46.017Z,2.95
2018-02-01T19:17:26.770Z,2.40
2018-02-01T19:20:05.266Z,2.40
2018-02-01T19:22:43.779Z,2.45
2018-02-01T19:25:23.220Z,1.80
2018-02-01T19:28:01.814Z,2.65
2018-02-01T19:30:41.380Z,1.42
2018-02-01T19:33:20.902Z,1.80
2018-02-01T19:36:00.425Z,1.98
2018-02-01T19:38:38.969Z,1.83
2018-02-01T19:41:18.517Z,1.95
2018-02-01T19:43:58.064Z,1.90
2018-02-01T19:46:38.362Z,2.30
2018-02-01T19:49:17.994Z,2.30
2018-02-01T19:51:56.337Z,2.20
2018-02-01T19:54:34.813Z,2.30
2018-02-01T19:57:14.354Z,2.20
2018-02-01T19:59:53.885Z,2.20
2018-02-01T20:02:32.495Z,2.28
2018-02-01T20:05:10.926Z,2.97
2018-02-01T20:07:50.428Z,2.50
2018-02-01T20:10:30.822Z,2.40
2018-02-01T20:13:10.343Z,2.60
2018-02-01T20:15:49.785Z,2.13
2018-02-01T20:18:28.327Z,2.47
2018-02-01T20:21:07.770Z,2.40
2018-02-01T20:23:48.198Z,2.63
2018-02-01T20:26:27.674Z,2.57
2018-02-01T20:29:05.923Z,2.70
2018-02-01T20:31:44.387Z,2.70
2018-02-01T20:34:24.855Z,2.87
2018-02-01T20:37:03.174Z,3.03
2018-02-01T20:39:42.362Z,2.30
2018-02-01T20:42:21.037Z,3.20
2018-02-01T20:45:00.325Z,2.83
2018-02-01T20:47:37.879Z,3.10
2018-02-01T20:50:17.298Z,2.90
2018-02-01T20:52:55.740Z,3.00
2018-02-01T20:55:35.201Z,2.80
2018-02-01T20:58:15.670Z,3.07
2018-02-01T21:00:55.048Z,2.40
2018-02-01T21:03:34.590Z,2.83
2018-02-01T21:06:14.347Z,3.03
2018-02-01T21:08:54.066Z,2.73
2018-02-01T21:11:33.370Z,3.27
2018-02-01T21:14:13.770Z,4.23
2018-02-01T21:16:52.282Z,5.20
2018-02-01T21:19:30.664Z,5.03
2018-02-01T21:22:10.098Z,3.00
2018-02-01T21:24:51.717Z,3.40
2018-02-01T21:27:31.235Z,2.60
2018-02-01T21:30:11.746Z,2.03
2018-02-01T21:32:51.289Z,2.83
2018-02-01T21:35:30.653Z,2.50
2018-02-01T21:38:10.011Z,2.53
2018-02-01T21:40:51.391Z,3.40
2018-02-01T21:43:30.885Z,3.30
2018-02-01T21:46:09.422Z,4.27
2018-02-01T21:48:47.866Z,3.33
2018-02-01T21:51:28.432Z,4.43
2018-02-01T21:54:07.941Z,5.53
2018-02-01T21:56:48.701Z,6.43
2018-02-01T21:59:27.140Z,4.80
2018-02-01T22:02:07.733Z,5.47
2018-02-01T22:04:46.407Z,4.23
2018-02-01T22:07:25.858Z,4.33
2018-02-01T22:10:06.405Z,5.10
2018-02-01T22:12:45.973Z,4.00
2018-02-01T22:15:24.521Z,4.73
2018-02-01T22:18:02.926Z,4.87
2018-02-01T22:20:42.330Z,4.73
2018-02-01T22:23:19.962Z,4.33
2018-02-01T22:25:59.538Z,5.10
2018-02-01T22:28:41.177Z,5.70
2018-02-01T22:31:19.518Z,5.20
2018-02-01T22:33:59.105Z,4.90
2018-02-01T22:36:39.701Z,5.30
2018-02-01T22:39:18.299Z,4.73
2018-02-01T22:41:56.692Z,4.27
2018-02-01T22:44:36.148Z,4.93
2018-02-01T22:47:14.494Z,4.17
2018-02-01T22:49:54.135Z,6.37
2018-02-01T22:52:34.989Z,5.53
2018-02-01T22:55:13.491Z,5.90
2018-02-01T22:57:51.978Z,5.53
2018-02-01T23:00:38.352Z,5.23
2018-02-01T23:03:16.862Z,4.93
2018-02-01T23:05:55.318Z,5.67
2018-02-01T23:08:33.774Z,5.30
2018-02-01T23:11:14.164Z,4.47
2018-02-01T23:13:52.645Z,4.70
2018-02-01T23:16:33.153Z,4.97
2018-02-01T23:19:11.902Z,5.37
2018-02-01T23:21:53.500Z,4.20
2018-02-01T23:24:32.996Z,6.00
2018-02-01T23:27:12.547Z,3.90
2018-02-01T23:29:51.057Z,2.90
2018-02-01T23:32:30.644Z,2.80
2018-02-01T23:35:10.201Z,2.93
2018-02-01T23:37:48.578Z,2.20
2018-02-01T23:40:28.762Z,2.70
2018-02-01T23:43:08.555Z,2.20
2018-02-01T23:45:48.915Z,2.90
2018-02-01T23:48:28.550Z,2.40
2018-02-01T23:51:07.048Z,2.20
2018-02-01T23:53:45.631Z,2.37
2018-02-01T23:56:25.178Z,1.93
2018-02-01T23:59:04.910Z,2.17
